sensor_id;sensor_type;location;lat;lon;timestamp;P1;durP1;ratioP1;P2;durP2;ratioP2
3843;SDS011;1937;51.444;6.484;2023-12-29T00:01:28;5.40;;;2.27;;
3843;SDS011;1937;51.444;6.484;2023-12-29T00:03:57;5.23;;;2.10;;
3843;SDS011;1937;51.444;6.484;2023-12-29T00:06:23;6.00;;;2.60;;
3843;SDS011;1937;51.444;6.484;2023-12-29T00:08:50;5.50;;;2.30;;
3843;SDS011;1937;51.444;6.484;2023-12-29T00:11:17;4.80;;;2.00;;
3843;SDS011;1937;51.444;6.484;2023-12-29T00:13:45;3.10;;;1.83;;
3843;SDS011;1937;51.444;6.484;2023-12-29T00:16:12;6.40;;;2.40;;
3843;SDS011;1937;51.444;6.484;2023-12-29T00:18:41;5.33;;;2.00;;
3843;SDS011;1937;51.444;6.484;2023-12-29T00:21:09;13.67;;;2.43;;
3843;SDS011;1937;51.444;6.484;2023-12-29T00:23:36;7.30;;;2.00;;
3843;SDS011;1937;51.444;6.484;2023-12-29T00:26:03;5.90;;;2.47;;
3843;SDS011;1937;51.444;6.484;2023-12-29T00:28:29;6.40;;;1.90;;
3843;SDS011;1937;51.444;6.484;2023-12-29T00:30:56;8.00;;;3.13;;
3843;SDS011;1937;51.444;6.484;2023-12-29T00:33:23;9.70;;;2.20;;
3843;SDS011;1937;51.444;6.484;2023-12-29T00:35:50;8.27;;;2.13;;
3843;SDS011;1937;51.444;6.484;2023-12-29T00:38:18;8.50;;;2.57;;
3843;SDS011;1937;51.444;6.484;2023-12-29T00:40:44;5.27;;;1.93;;
3843;SDS011;1937;51.444;6.484;2023-12-29T00:43:11;4.50;;;2.00;;
3843;SDS011;1937;51.444;6.484;2023-12-29T00:45:37;4.37;;;1.80;;
3843;SDS011;1937;51.444;6.484;2023-12-29T00:48:04;7.40;;;2.70;;
3843;SDS011;1937;51.444;6.484;2023-12-29T00:50:32;7.80;;;2.17;;
3843;SDS011;1937;51.444;6.484;2023-12-29T00:52:59;7.80;;;1.93;;
3843;SDS011;1937;51.444;6.484;2023-12-29T00:55:27;6.60;;;1.90;;
3843;SDS011;1937;51.444;6.484;2023-12-29T00:57:53;2.57;;;1.70;;
3843;SDS011;1937;51.444;6.484;2023-12-29T01:00:20;4.00;;;2.50;;
3843;SDS011;1937;51.444;6.484;2023-12-29T01:02:47;2.90;;;1.73;;
3843;SDS011;1937;51.444;6.484;2023-12-29T01:05:14;3.63;;;2.27;;
3843;SDS011;1937;51.444;6.484;2023-12-29T01:07:42;5.47;;;2.87;;
3843;SDS011;1937;51.444;6.484;2023-12-29T01:10:09;12.97;;;2.80;;
3843;SDS011;1937;51.444;6.484;2023-12-29T01:12:37;9.13;;;2.47;;
3843;SDS011;1937;51.444;6.484;2023-12-29T01:15:04;5.60;;;1.93;;
3843;SDS011;1937;51.444;6.484;2023-12-29T01:17:31;7.47;;;2.87;;
3843;SDS011;1937;51.444;6.484;2023-12-29T01:19:58;6.37;;;2.43;;
3843;SDS011;1937;51.444;6.484;2023-12-29T01:22:24;10.53;;;2.23;;
3843;SDS011;1937;51.444;6.484;2023-12-29T01:24:51;3.53;;;2.00;;
3843;SDS011;1937;51.444;6.484;2023-12-29T01:27:18;6.63;;;2.33;;
3843;SDS011;1937;51.444;6.484;2023-12-29T01:29:46;6.00;;;2.67;;
3843;SDS011;1937;51.444;6.484;2023-12-29T01:32:12;5.20;;;2.20;;
3843;SDS011;1937;51.444;6.484;2023-12-29T01:34:40;10.87;;;3.00;;
3843;SDS011;1937;51.444;6.484;2023-12-29T01:37:06;2.87;;;1.90;;
3843;SDS011;1937;51.444;6.484;2023-12-29T01:39:33;7.00;;;3.90;;
3843;SDS011;1937;51.444;6.484;2023-12-29T01:42:00;3.10;;;2.70;;
3843;SDS011;1937;51.444;6.484;2023-12-29T01:44:27;9.10;;;2.27;;
3843;SDS011;1937;51.444;6.484;2023-12-29T01:46:56;6.33;;;2.70;;
3843;SDS011;1937;51.444;6.484;2023-12-29T01:49:25;7.27;;;2.70;;
3843;SDS011;1937;51.444;6.484;2023-12-29T01:51:52;9.43;;;2.57;;
3843;SDS011;1937;51.444;6.484;2023-12-29T01:54:21;6.20;;;2.40;;
3843;SDS011;1937;51.444;6.484;2023-12-29T01:56:49;5.10;;;2.40;;
3843;SDS011;1937;51.444;6.484;2023-12-29T01:59:17;5.57;;;3.27;;
3843;SDS011;1937;51.444;6.484;2023-12-29T02:01:44;11.27;;;3.40;;
3843;SDS011;1937;51.444;6.484;2023-12-29T02:04:14;6.00;;;2.40;;
3843;SDS011;1937;51.444;6.484;2023-12-29T02:06:43;5.40;;;2.60;;
3843;SDS011;1937;51.444;6.484;2023-12-29T02:09:09;10.30;;;3.00;;
3843;SDS011;1937;51.444;6.484;2023-12-29T02:11:37;7.80;;;2.87;;
3843;SDS011;1937;51.444;6.484;2023-12-29T02:14:04;6.00;;;2.97;;
3843;SDS011;1937;51.444;6.484;2023-12-29T02:16:35;12.30;;;3.87;;
3843;SDS011;1937;51.444;6.484;2023-12-29T02:19:09;9.53;;;2.60;;
3843;SDS011;1937;51.444;6.484;2023-12-29T02:21:47;9.20;;;2.90;;
3843;SDS011;1937;51.444;6.484;2023-12-29T02:24:13;10.17;;;3.10;;
3843;SDS011;1937;51.444;6.484;2023-12-29T02:26:41;11.33;;;3.23;;
3843;SDS011;1937;51.444;6.484;2023-12-29T02:29:13;13.03;;;3.00;;
3843;SDS011;1937;51.444;6.484;2023-12-29T02:31:45;6.13;;;2.50;;
3843;SDS011;1937;51.444;6.484;2023-12-29T02:34:17;6.20;;;2.77;;
3843;SDS011;1937;51.444;6.484;2023-12-29T02:36:45;12.27;;;3.27;;
3843;SDS011;1937;51.444;6.484;2023-12-29T02:39:15;11.53;;;3.80;;
3843;SDS011;1937;51.444;6.484;2023-12-29T02:41:44;11.23;;;3.90;;
3843;SDS011;1937;51.444;6.484;2023-12-29T02:44:11;7.00;;;3.10;;
3843;SDS011;1937;51.444;6.484;2023-12-29T02:46:38;6.10;;;2.90;;
3843;SDS011;1937;51.444;6.484;2023-12-29T02:49:04;12.53;;;3.20;;
3843;SDS011;1937;51.444;6.484;2023-12-29T02:51:36;12.87;;;3.70;;
3843;SDS011;1937;51.444;6.484;2023-12-29T02:54:03;7.00;;;2.73;;
3843;SDS011;1937;51.444;6.484;2023-12-29T02:56:30;8.20;;;3.10;;
3843;SDS011;1937;51.444;6.484;2023-12-29T02:58:58;3.90;;;2.97;;
3843;SDS011;1937;51.444;6.484;2023-12-29T03:01:25;3.73;;;2.73;;
3843;SDS011;1937;51.444;6.484;2023-12-29T03:03:53;5.73;;;3.00;;
3843;SDS011;1937;51.444;6.484;2023-12-29T03:06:20;5.43;;;2.77;;
3843;SDS011;1937;51.444;6.484;2023-12-29T03:08:47;7.57;;;2.80;;
3843;SDS011;1937;51.444;6.484;2023-12-29T03:11:13;3.90;;;2.97;;
3843;SDS011;1937;51.444;6.484;2023-12-29T03:13:40;13.77;;;4.00;;
3843;SDS011;1937;51.444;6.484;2023-12-29T03:16:08;15.37;;;3.20;;
3843;SDS011;1937;51.444;6.484;2023-12-29T03:18:35;8.77;;;3.13;;
3843;SDS011;1937;51.444;6.484;2023-12-29T03:21:05;10.27;;;3.73;;
3843;SDS011;1937;51.444;6.484;2023-12-29T03:23:32;6.80;;;3.20;;
3843;SDS011;1937;51.444;6.484;2023-12-29T03:25:59;7.63;;;2.40;;
3843;SDS011;1937;51.444;6.484;2023-12-29T03:28:25;6.23;;;2.67;;
3843;SDS011;1937;51.444;6.484;2023-12-29T03:30:52;8.33;;;2.70;;
3843;SDS011;1937;51.444;6.484;2023-12-29T03:33:20;2.60;;;2.10;;
3843;SDS011;1937;51.444;6.484;2023-12-29T03:35:46;7.30;;;2.80;;
3843;SDS011;1937;51.444;6.484;2023-12-29T03:38:13;6.63;;;2.30;;
3843;SDS011;1937;51.444;6.484;2023-12-29T03:40:40;8.60;;;2.83;;
3843;SDS011;1937;51.444;6.484;2023-12-29T03:43:07;5.27;;;2.40;;
3843;SDS011;1937;51.444;6.484;2023-12-29T03:45:33;7.90;;;2.90;;
3843;SDS011;1937;51.444;6.484;2023-12-29T03:48:00;7.33;;;2.43;;
3843;SDS011;1937;51.444;6.484;2023-12-29T03:50:28;5.63;;;2.40;;
3843;SDS011;1937;51.444;6.484;2023-12-29T03:52:54;4.90;;;1.90;;
3843;SDS011;1937;51.444;6.484;2023-12-29T03:55:21;6.17;;;2.10;;
3843;SDS011;1937;51.444;6.484;2023-12-29T03:57:47;4.23;;;2.93;;
3843;SDS011;1937;51.444;6.484;2023-12-29T04:00:14;8.03;;;2.37;;
3843;SDS011;1937;51.444;6.484;2023-12-29T04:02:41;10.20;;;2.30;;
3843;SDS011;1937;51.444;6.484;2023-12-29T04:05:08;10.23;;;4.20;;
3843;SDS011;1937;51.444;6.484;2023-12-29T04:07:36;7.60;;;2.23;;
3843;SDS011;1937;51.444;6.484;2023-12-29T04:10:05;9.00;;;2.97;;
3843;SDS011;1937;51.444;6.484;2023-12-29T04:12:33;8.90;;;2.27;;
3843;SDS011;1937;51.444;6.484;2023-12-29T04:14:59;5.80;;;2.20;;
3843;SDS011;1937;51.444;6.484;2023-12-29T04:17:26;7.70;;;2.30;;
3843;SDS011;1937;51.444;6.484;2023-12-29T04:19:52;5.93;;;2.23;;
3843;SDS011;1937;51.444;6.484;2023-12-29T04:22:19;5.00;;;1.97;;
3843;SDS011;1937;51.444;6.484;2023-12-29T04:24:47;8.37;;;2.40;;
3843;SDS011;1937;51.444;6.484;2023-12-29T04:27:13;9.23;;;2.40;;
3843;SDS011;1937;51.444;6.484;2023-12-29T04:29:40;5.27;;;3.87;;
3843;SDS011;1937;51.444;6.484;2023-12-29T04:32:07;5.20;;;2.07;;
3843;SDS011;1937;51.444;6.484;2023-12-29T04:34:33;7.07;;;2.77;;
3843;SDS011;1937;51.444;6.484;2023-12-29T04:37:00;9.13;;;2.17;;
3843;SDS011;1937;51.444;6.484;2023-12-29T04:39:26;3.40;;;2.23;;
3843;SDS011;1937;51.444;6.484;2023-12-29T04:41:54;9.23;;;2.40;;
3843;SDS011;1937;51.444;6.484;2023-12-29T04:44:21;6.03;;;2.20;;
3843;SDS011;1937;51.444;6.484;2023-12-29T04:46:47;6.93;;;2.47;;
3843;SDS011;1937;51.444;6.484;2023-12-29T04:49:14;10.70;;;3.20;;
3843;SDS011;1937;51.444;6.484;2023-12-29T04:51:41;4.83;;;2.90;;
3843;SDS011;1937;51.444;6.484;2023-12-29T04:54:07;5.40;;;2.37;;
3843;SDS011;1937;51.444;6.484;2023-12-29T04:56:34;4.93;;;2.10;;
3843;SDS011;1937;51.444;6.484;2023-12-29T04:59:01;10.70;;;3.30;;
3843;SDS011;1937;51.444;6.484;2023-12-29T05:01:28;8.87;;;2.97;;
3843;SDS011;1937;51.444;6.484;2023-12-29T05:03:54;4.83;;;1.57;;
3843;SDS011;1937;51.444;6.484;2023-12-29T05:06:21;7.17;;;4.83;;
3843;SDS011;1937;51.444;6.484;2023-12-29T05:08:48;17.40;;;2.43;;
3843;SDS011;1937;51.444;6.484;2023-12-29T05:11:14;9.17;;;2.67;;
3843;SDS011;1937;51.444;6.484;2023-12-29T05:13:41;6.53;;;2.43;;
3843;SDS011;1937;51.444;6.484;2023-12-29T05:16:09;2.93;;;1.63;;
3843;SDS011;1937;51.444;6.484;2023-12-29T05:18:36;9.30;;;3.70;;
3843;SDS011;1937;51.444;6.484;2023-12-29T05:21:02;8.10;;;2.83;;
3843;SDS011;1937;51.444;6.484;2023-12-29T05:23:29;8.53;;;2.27;;
3843;SDS011;1937;51.444;6.484;2023-12-29T05:25:56;3.90;;;2.53;;
3843;SDS011;1937;51.444;6.484;2023-12-29T05:28:23;8.00;;;3.10;;
3843;SDS011;1937;51.444;6.484;2023-12-29T05:30:49;7.20;;;2.53;;
3843;SDS011;1937;51.444;6.484;2023-12-29T05:33:17;9.00;;;1.90;;
3843;SDS011;1937;51.444;6.484;2023-12-29T05:35:44;12.03;;;2.70;;
3843;SDS011;1937;51.444;6.484;2023-12-29T05:38:10;7.40;;;2.50;;
3843;SDS011;1937;51.444;6.484;2023-12-29T05:40:37;5.50;;;2.30;;
3843;SDS011;1937;51.444;6.484;2023-12-29T05:43:04;10.00;;;2.30;;
3843;SDS011;1937;51.444;6.484;2023-12-29T05:45:29;11.37;;;2.63;;
3843;SDS011;1937;51.444;6.484;2023-12-29T05:47:56;7.20;;;2.67;;
3843;SDS011;1937;51.444;6.484;2023-12-29T05:50:24;8.03;;;2.70;;
3843;SDS011;1937;51.444;6.484;2023-12-29T05:52:50;5.43;;;2.13;;
3843;SDS011;1937;51.444;6.484;2023-12-29T05:55:17;16.23;;;2.50;;
3843;SDS011;1937;51.444;6.484;2023-12-29T05:57:44;7.43;;;2.60;;
3843;SDS011;1937;51.444;6.484;2023-12-29T06:00:11;10.20;;;2.67;;
3843;SDS011;1937;51.444;6.484;2023-12-29T06:02:39;7.77;;;2.50;;
3843;SDS011;1937;51.444;6.484;2023-12-29T06:05:07;5.97;;;2.60;;
3843;SDS011;1937;51.444;6.484;2023-12-29T06:07:35;8.57;;;2.37;;
3843;SDS011;1937;51.444;6.484;2023-12-29T06:10:02;10.93;;;2.93;;
3843;SDS011;1937;51.444;6.484;2023-12-29T06:12:29;5.13;;;2.00;;
3843;SDS011;1937;51.444;6.484;2023-12-29T06:14:56;3.37;;;2.07;;
3843;SDS011;1937;51.444;6.484;2023-12-29T06:17:22;14.37;;;2.57;;
3843;SDS011;1937;51.444;6.484;2023-12-29T06:19:49;6.93;;;2.20;;
3843;SDS011;1937;51.444;6.484;2023-12-29T06:22:16;13.40;;;2.70;;
3843;SDS011;1937;51.444;6.484;2023-12-29T06:24:44;10.47;;;2.87;;
3843;SDS011;1937;51.444;6.484;2023-12-29T06:27:10;3.57;;;2.00;;
3843;SDS011;1937;51.444;6.484;2023-12-29T06:29:37;5.10;;;2.00;;
3843;SDS011;1937;51.444;6.484;2023-12-29T06:32:04;7.13;;;1.90;;
3843;SDS011;1937;51.444;6.484;2023-12-29T06:34:31;5.17;;;2.57;;
3843;SDS011;1937;51.444;6.484;2023-12-29T06:36:58;7.07;;;2.37;;
3843;SDS011;1937;51.444;6.484;2023-12-29T06:39:24;4.67;;;2.90;;
3843;SDS011;1937;51.444;6.484;2023-12-29T06:41:52;3.70;;;2.83;;
3843;SDS011;1937;51.444;6.484;2023-12-29T06:44:19;3.63;;;2.20;;
3843;SDS011;1937;51.444;6.484;2023-12-29T06:46:46;8.00;;;2.20;;
3843;SDS011;1937;51.444;6.484;2023-12-29T06:49:12;11.10;;;2.10;;
3843;SDS011;1937;51.444;6.484;2023-12-29T06:51:38;12.77;;;2.97;;
3843;SDS011;1937;51.444;6.484;2023-12-29T06:54:06;4.27;;;1.90;;
3843;SDS011;1937;51.444;6.484;2023-12-29T06:56:33;13.33;;;2.20;;
3843;SDS011;1937;51.444;6.484;2023-12-29T06:59:00;5.57;;;2.10;;
3843;SDS011;1937;51.444;6.484;2023-12-29T07:01:27;5.30;;;2.10;;
3843;SDS011;1937;51.444;6.484;2023-12-29T07:03:54;6.57;;;2.40;;
3843;SDS011;1937;51.444;6.484;2023-12-29T07:06:20;10.87;;;2.80;;
3843;SDS011;1937;51.444;6.484;2023-12-29T07:08:47;11.53;;;4.27;;
3843;SDS011;1937;51.444;6.484;2023-12-29T07:11:14;8.53;;;2.90;;
3843;SDS011;1937;51.444;6.484;2023-12-29T07:13:41;13.90;;;3.30;;
3843;SDS011;1937;51.444;6.484;2023-12-29T07:16:09;8.27;;;2.40;;
3843;SDS011;1937;51.444;6.484;2023-12-29T07:18:35;8.13;;;3.00;;
3843;SDS011;1937;51.444;6.484;2023-12-29T07:21:02;9.60;;;2.60;;
3843;SDS011;1937;51.444;6.484;2023-12-29T07:23:29;10.90;;;2.87;;
3843;SDS011;1937;51.444;6.484;2023-12-29T07:25:56;12.17;;;3.30;;
3843;SDS011;1937;51.444;6.484;2023-12-29T07:28:22;8.00;;;2.40;;
3843;SDS011;1937;51.444;6.484;2023-12-29T07:30:49;7.83;;;3.10;;
3843;SDS011;1937;51.444;6.484;2023-12-29T07:33:17;10.00;;;2.63;;
3843;SDS011;1937;51.444;6.484;2023-12-29T07:35:43;6.87;;;4.80;;
3843;SDS011;1937;51.444;6.484;2023-12-29T07:38:10;5.40;;;2.57;;
3843;SDS011;1937;51.444;6.484;2023-12-29T07:40:37;5.20;;;2.70;;
3843;SDS011;1937;51.444;6.484;2023-12-29T07:43:03;5.40;;;2.73;;
3843;SDS011;1937;51.444;6.484;2023-12-29T07:45:30;9.30;;;2.90;;
3843;SDS011;1937;51.444;6.484;2023-12-29T07:47:57;6.30;;;2.40;;
3843;SDS011;1937;51.444;6.484;2023-12-29T07:50:25;11.27;;;3.00;;
3843;SDS011;1937;51.444;6.484;2023-12-29T07:52:52;8.70;;;2.60;;
3843;SDS011;1937;51.444;6.484;2023-12-29T07:55:18;7.17;;;2.60;;
3843;SDS011;1937;51.444;6.484;2023-12-29T07:57:45;5.23;;;2.83;;
3843;SDS011;1937;51.444;6.484;2023-12-29T08:00:12;5.50;;;2.47;;
3843;SDS011;1937;51.444;6.484;2023-12-29T08:02:40;9.77;;;3.10;;
3843;SDS011;1937;51.444;6.484;2023-12-29T08:05:06;3.00;;;2.10;;
3843;SDS011;1937;51.444;6.484;2023-12-29T08:07:35;10.80;;;2.50;;
3843;SDS011;1937;51.444;6.484;2023-12-29T08:10:02;5.90;;;2.30;;
3843;SDS011;1937;51.444;6.484;2023-12-29T08:12:29;7.13;;;2.50;;
3843;SDS011;1937;51.444;6.484;2023-12-29T08:14:58;4.40;;;2.23;;
3843;SDS011;1937;51.444;6.484;2023-12-29T08:17:25;4.17;;;2.37;;
3843;SDS011;1937;51.444;6.484;2023-12-29T08:19:52;4.03;;;2.37;;
3843;SDS011;1937;51.444;6.484;2023-12-29T08:22:19;7.90;;;2.37;;
3843;SDS011;1937;51.444;6.484;2023-12-29T08:24:47;6.17;;;1.90;;
3843;SDS011;1937;51.444;6.484;2023-12-29T08:27:14;11.50;;;2.40;;
3843;SDS011;1937;51.444;6.484;2023-12-29T08:29:41;4.93;;;1.90;;
3843;SDS011;1937;51.444;6.484;2023-12-29T08:32:07;4.50;;;3.20;;
3843;SDS011;1937;51.444;6.484;2023-12-29T08:34:34;5.57;;;2.10;;
3843;SDS011;1937;51.444;6.484;2023-12-29T08:37:02;4.37;;;2.00;;
3843;SDS011;1937;51.444;6.484;2023-12-29T08:39:29;11.53;;;2.10;;
3843;SDS011;1937;51.444;6.484;2023-12-29T08:41:57;7.70;;;1.87;;
3843;SDS011;1937;51.444;6.484;2023-12-29T08:44:23;3.67;;;2.27;;
3843;SDS011;1937;51.444;6.484;2023-12-29T08:46:50;7.43;;;2.17;;
3843;SDS011;1937;51.444;6.484;2023-12-29T08:49:16;4.57;;;2.00;;
3843;SDS011;1937;51.444;6.484;2023-12-29T08:51:43;3.20;;;1.60;;
3843;SDS011;1937;51.444;6.484;2023-12-29T08:54:10;4.13;;;2.20;;
3843;SDS011;1937;51.444;6.484;2023-12-29T08:56:36;4.70;;;1.80;;
3843;SDS011;1937;51.444;6.484;2023-12-29T08:59:04;4.30;;;1.83;;
3843;SDS011;1937;51.444;6.484;2023-12-29T09:01:31;3.27;;;1.63;;
3843;SDS011;1937;51.444;6.484;2023-12-29T09:03:58;2.30;;;1.40;;
3843;SDS011;1937;51.444;6.484;2023-12-29T09:06:25;4.30;;;1.70;;
3843;SDS011;1937;51.444;6.484;2023-12-29T09:08:52;3.07;;;1.77;;
3843;SDS011;1937;51.444;6.484;2023-12-29T09:11:19;2.20;;;1.60;;
3843;SDS011;1937;51.444;6.484;2023-12-29T09:13:46;2.33;;;1.50;;
3843;SDS011;1937;51.444;6.484;2023-12-29T09:16:14;3.07;;;1.20;;
3843;SDS011;1937;51.444;6.484;2023-12-29T09:18:40;6.43;;;1.80;;
3843;SDS011;1937;51.444;6.484;2023-12-29T09:21:07;3.63;;;1.30;;
3843;SDS011;1937;51.444;6.484;2023-12-29T09:23:33;2.33;;;1.70;;
3843;SDS011;1937;51.444;6.484;2023-12-29T09:26:02;1.57;;;1.07;;
3843;SDS011;1937;51.444;6.484;2023-12-29T09:28:30;3.87;;;1.30;;
3843;SDS011;1937;51.444;6.484;2023-12-29T09:30:59;1.10;;;1.00;;
3843;SDS011;1937;51.444;6.484;2023-12-29T09:33:27;1.17;;;1.07;;
3843;SDS011;1937;51.444;6.484;2023-12-29T09:35:54;1.30;;;1.20;;
3843;SDS011;1937;51.444;6.484;2023-12-29T09:38:20;2.40;;;1.00;;
3843;SDS011;1937;51.444;6.484;2023-12-29T09:40:47;2.77;;;1.30;;
3843;SDS011;1937;51.444;6.484;2023-12-29T09:43:15;1.97;;;1.27;;
3843;SDS011;1937;51.444;6.484;2023-12-29T09:45:42;1.47;;;1.37;;
3843;SDS011;1937;51.444;6.484;2023-12-29T09:48:12;1.33;;;1.23;;
3843;SDS011;1937;51.444;6.484;2023-12-29T09:50:41;1.37;;;1.20;;
3843;SDS011;1937;51.444;6.484;2023-12-29T09:53:09;3.40;;;1.47;;
3843;SDS011;1937;51.444;6.484;2023-12-29T09:55:38;2.20;;;1.40;;
3843;SDS011;1937;51.444;6.484;2023-12-29T09:58:05;1.87;;;1.50;;
3843;SDS011;1937;51.444;6.484;2023-12-29T10:00:33;5.33;;;1.60;;
3843;SDS011;1937;51.444;6.484;2023-12-29T10:03:00;2.03;;;1.10;;
3843;SDS011;1937;51.444;6.484;2023-12-29T10:05:27;2.60;;;1.27;;
3843;SDS011;1937;51.444;6.484;2023-12-29T10:07:55;1.47;;;1.10;;
3843;SDS011;1937;51.444;6.484;2023-12-29T10:10:24;3.40;;;1.23;;
3843;SDS011;1937;51.444;6.484;2023-12-29T10:12:52;1.27;;;1.17;;
3843;SDS011;1937;51.444;6.484;2023-12-29T10:15:21;1.10;;;1.10;;
3843;SDS011;1937;51.444;6.484;2023-12-29T10:17:56;1.10;;;1.10;;
3843;SDS011;1937;51.444;6.484;2023-12-29T10:20:36;1.50;;;1.40;;
3843;SDS011;1937;51.444;6.484;2023-12-29T10:23:11;1.30;;;1.10;;
3843;SDS011;1937;51.444;6.484;2023-12-29T10:25:46;1.90;;;1.30;;
3843;SDS011;1937;51.444;6.484;2023-12-29T10:28:14;1.30;;;1.20;;
3843;SDS011;1937;51.444;6.484;2023-12-29T10:30:42;2.00;;;1.87;;
3843;SDS011;1937;51.444;6.484;2023-12-29T10:33:09;2.27;;;1.70;;
3843;SDS011;1937;51.444;6.484;2023-12-29T10:35:35;1.77;;;1.40;;
3843;SDS011;1937;51.444;6.484;2023-12-29T10:38:09;7.23;;;1.67;;
3843;SDS011;1937;51.444;6.484;2023-12-29T10:40:38;2.33;;;1.33;;
3843;SDS011;1937;51.444;6.484;2023-12-29T10:43:04;1.53;;;1.33;;
3843;SDS011;1937;51.444;6.484;2023-12-29T10:45:32;1.80;;;1.23;;
3843;SDS011;1937;51.444;6.484;2023-12-29T10:47:59;3.60;;;1.70;;
3843;SDS011;1937;51.444;6.484;2023-12-29T10:50:27;1.63;;;1.53;;
3843;SDS011;1937;51.444;6.484;2023-12-29T10:52:57;3.00;;;1.40;;
3843;SDS011;1937;51.444;6.484;2023-12-29T10:55:38;2.90;;;1.90;;
3843;SDS011;1937;51.444;6.484;2023-12-29T10:58:05;3.80;;;2.03;;
3843;SDS011;1937;51.444;6.484;2023-12-29T11:00:32;2.53;;;1.30;;
3843;SDS011;1937;51.444;6.484;2023-12-29T11:02:58;2.10;;;1.57;;
3843;SDS011;1937;51.444;6.484;2023-12-29T11:05:25;1.90;;;1.50;;
3843;SDS011;1937;51.444;6.484;2023-12-29T11:07:53;2.20;;;1.60;;
3843;SDS011;1937;51.444;6.484;2023-12-29T11:10:20;3.23;;;1.33;;
3843;SDS011;1937;51.444;6.484;2023-12-29T11:12:49;2.93;;;1.33;;
3843;SDS011;1937;51.444;6.484;2023-12-29T11:15:17;1.20;;;1.10;;
3843;SDS011;1937;51.444;6.484;2023-12-29T11:17:43;2.87;;;1.10;;
3843;SDS011;1937;51.444;6.484;2023-12-29T11:20:14;1.70;;;1.60;;
3843;SDS011;1937;51.444;6.484;2023-12-29T11:22:42;1.60;;;1.50;;
3843;SDS011;1937;51.444;6.484;2023-12-29T11:25:09;6.20;;;1.33;;
3843;SDS011;1937;51.444;6.484;2023-12-29T11:27:36;9.20;;;1.90;;
3843;SDS011;1937;51.444;6.484;2023-12-29T11:30:04;1.33;;;1.23;;
3843;SDS011;1937;51.444;6.484;2023-12-29T11:32:34;6.87;;;1.50;;
3843;SDS011;1937;51.444;6.484;2023-12-29T11:35:13;1.87;;;1.30;;
3843;SDS011;1937;51.444;6.484;2023-12-29T11:37:48;3.33;;;1.53;;
3843;SDS011;1937;51.444;6.484;2023-12-29T11:40:25;4.43;;;1.37;;
3843;SDS011;1937;51.444;6.484;2023-12-29T11:42:57;2.20;;;1.40;;
3843;SDS011;1937;51.444;6.484;2023-12-29T11:45:31;3.20;;;1.30;;
3843;SDS011;1937;51.444;6.484;2023-12-29T11:48:01;4.60;;;1.37;;
3843;SDS011;1937;51.444;6.484;2023-12-29T11:50:29;9.57;;;1.37;;
3843;SDS011;1937;51.444;6.484;2023-12-29T11:52:57;1.50;;;1.40;;
3843;SDS011;1937;51.444;6.484;2023-12-29T11:55:27;7.37;;;1.47;;
3843;SDS011;1937;51.444;6.484;2023-12-29T11:57:55;8.23;;;1.40;;
3843;SDS011;1937;51.444;6.484;2023-12-29T12:03:18;6.00;;;1.50;;
3843;SDS011;1937;51.444;6.484;2023-12-29T12:05:51;3.77;;;1.47;;
3843;SDS011;1937;51.444;6.484;2023-12-29T12:08:28;2.90;;;1.70;;
3843;SDS011;1937;51.444;6.484;2023-12-29T12:10:56;2.00;;;1.60;;
3843;SDS011;1937;51.444;6.484;2023-12-29T12:13:44;2.00;;;1.67;;
3843;SDS011;1937;51.444;6.484;2023-12-29T12:19:12;3.67;;;2.50;;
3843;SDS011;1937;51.444;6.484;2023-12-29T12:21:39;2.77;;;1.67;;
3843;SDS011;1937;51.444;6.484;2023-12-29T12:24:07;1.80;;;1.30;;
3843;SDS011;1937;51.444;6.484;2023-12-29T12:26:34;3.63;;;1.67;;
3843;SDS011;1937;51.444;6.484;2023-12-29T12:29:01;4.93;;;1.90;;
3843;SDS011;1937;51.444;6.484;2023-12-29T12:31:28;2.87;;;1.70;;
3843;SDS011;1937;51.444;6.484;2023-12-29T12:33:55;2.80;;;1.57;;
3843;SDS011;1937;51.444;6.484;2023-12-29T12:36:23;2.67;;;1.70;;
3843;SDS011;1937;51.444;6.484;2023-12-29T12:38:51;1.60;;;1.33;;
3843;SDS011;1937;51.444;6.484;2023-12-29T12:41:18;2.20;;;1.37;;
3843;SDS011;1937;51.444;6.484;2023-12-29T12:43:46;3.20;;;1.60;;
3843;SDS011;1937;51.444;6.484;2023-12-29T12:46:21;2.27;;;1.60;;
3843;SDS011;1937;51.444;6.484;2023-12-29T12:48:50;3.80;;;2.03;;
3843;SDS011;1937;51.444;6.484;2023-12-29T12:51:18;2.53;;;1.80;;
3843;SDS011;1937;51.444;6.484;2023-12-29T12:53:47;3.10;;;1.70;;
3843;SDS011;1937;51.444;6.484;2023-12-29T12:56:15;7.13;;;1.70;;
3843;SDS011;1937;51.444;6.484;2023-12-29T12:58:44;2.43;;;2.10;;
3843;SDS011;1937;51.444;6.484;2023-12-29T13:01:10;9.43;;;4.00;;
3843;SDS011;1937;51.444;6.484;2023-12-29T13:03:38;4.40;;;2.10;;
3843;SDS011;1937;51.444;6.484;2023-12-29T13:06:05;4.13;;;1.70;;
3843;SDS011;1937;51.444;6.484;2023-12-29T13:08:33;2.97;;;2.00;;
3843;SDS011;1937;51.444;6.484;2023-12-29T13:11:01;3.83;;;2.20;;
3843;SDS011;1937;51.444;6.484;2023-12-29T13:13:35;1.93;;;1.67;;
3843;SDS011;1937;51.444;6.484;2023-12-29T13:16:02;1.73;;;1.63;;
3843;SDS011;1937;51.444;6.484;2023-12-29T13:18:30;3.97;;;1.70;;
3843;SDS011;1937;51.444;6.484;2023-12-29T13:20:57;4.70;;;1.90;;
3843;SDS011;1937;51.444;6.484;2023-12-29T13:23:24;6.37;;;1.73;;
3843;SDS011;1937;51.444;6.484;2023-12-29T13:25:51;3.00;;;1.60;;
3843;SDS011;1937;51.444;6.484;2023-12-29T13:28:22;2.80;;;1.90;;
3843;SDS011;1937;51.444;6.484;2023-12-29T13:30:48;3.53;;;1.73;;
3843;SDS011;1937;51.444;6.484;2023-12-29T13:33:17;4.20;;;2.40;;
3843;SDS011;1937;51.444;6.484;2023-12-29T13:35:51;6.23;;;2.30;;
3843;SDS011;1937;51.444;6.484;2023-12-29T13:38:25;3.50;;;1.57;;
3843;SDS011;1937;51.444;6.484;2023-12-29T13:40:56;4.40;;;2.10;;
3843;SDS011;1937;51.444;6.484;2023-12-29T13:43:29;12.63;;;2.70;;
3843;SDS011;1937;51.444;6.484;2023-12-29T13:45:58;8.33;;;2.93;;
3843;SDS011;1937;51.444;6.484;2023-12-29T13:48:25;3.33;;;2.30;;
3843;SDS011;1937;51.444;6.484;2023-12-29T13:50:53;2.60;;;2.40;;
3843;SDS011;1937;51.444;6.484;2023-12-29T13:53:20;6.20;;;2.40;;
3843;SDS011;1937;51.444;6.484;2023-12-29T13:55:47;6.83;;;2.40;;
3843;SDS011;1937;51.444;6.484;2023-12-29T13:58:14;3.60;;;2.03;;
3843;SDS011;1937;51.444;6.484;2023-12-29T14:00:43;3.60;;;2.10;;
3843;SDS011;1937;51.444;6.484;2023-12-29T14:03:22;3.87;;;2.17;;
3843;SDS011;1937;51.444;6.484;2023-12-29T14:05:51;4.80;;;2.17;;
3843;SDS011;1937;51.444;6.484;2023-12-29T14:08:23;3.77;;;2.70;;
3843;SDS011;1937;51.444;6.484;2023-12-29T14:10:53;8.03;;;1.90;;
3843;SDS011;1937;51.444;6.484;2023-12-29T14:13:19;2.97;;;1.63;;
3843;SDS011;1937;51.444;6.484;2023-12-29T14:15:48;6.00;;;1.90;;
3843;SDS011;1937;51.444;6.484;2023-12-29T14:18:23;2.37;;;1.80;;
3843;SDS011;1937;51.444;6.484;2023-12-29T14:21:02;3.77;;;1.60;;
3843;SDS011;1937;51.444;6.484;2023-12-29T14:23:28;4.47;;;1.67;;
3843;SDS011;1937;51.444;6.484;2023-12-29T14:26:01;2.70;;;1.70;;
3843;SDS011;1937;51.444;6.484;2023-12-29T14:28:28;3.57;;;1.60;;
3843;SDS011;1937;51.444;6.484;2023-12-29T14:31:01;2.97;;;1.40;;
3843;SDS011;1937;51.444;6.484;2023-12-29T14:33:28;1.50;;;1.40;;
3843;SDS011;1937;51.444;6.484;2023-12-29T14:35:55;4.80;;;2.10;;
3843;SDS011;1937;51.444;6.484;2023-12-29T14:38:22;6.33;;;1.63;;
3843;SDS011;1937;51.444;6.484;2023-12-29T14:40:49;2.10;;;1.30;;
3843;SDS011;1937;51.444;6.484;2023-12-29T14:43:16;1.13;;;0.90;;
3843;SDS011;1937;51.444;6.484;2023-12-29T14:45:43;1.77;;;1.33;;
3843;SDS011;1937;51.444;6.484;2023-12-29T14:48:11;1.43;;;1.20;;
3843;SDS011;1937;51.444;6.484;2023-12-29T14:50:38;2.40;;;1.30;;
3843;SDS011;1937;51.444;6.484;2023-12-29T14:53:04;4.70;;;1.30;;
3843;SDS011;1937;51.444;6.484;2023-12-29T14:55:31;2.50;;;1.57;;
3843;SDS011;1937;51.444;6.484;2023-12-29T14:57:57;1.60;;;1.33;;
3843;SDS011;1937;51.444;6.484;2023-12-29T15:00:24;3.30;;;1.93;;
3843;SDS011;1937;51.444;6.484;2023-12-29T15:02:50;1.63;;;1.40;;
3843;SDS011;1937;51.444;6.484;2023-12-29T15:05:18;2.70;;;1.07;;
3843;SDS011;1937;51.444;6.484;2023-12-29T15:07:45;3.00;;;1.40;;
3843;SDS011;1937;51.444;6.484;2023-12-29T15:10:12;1.30;;;1.20;;
3843;SDS011;1937;51.444;6.484;2023-12-29T15:12:38;3.97;;;1.73;;
3843;SDS011;1937;51.444;6.484;2023-12-29T15:15:06;2.23;;;1.80;;
3843;SDS011;1937;51.444;6.484;2023-12-29T15:17:33;1.43;;;1.33;;
3843;SDS011;1937;51.444;6.484;2023-12-29T15:19:59;1.83;;;1.30;;
3843;SDS011;1937;51.444;6.484;2023-12-29T15:25:20;4.13;;;1.87;;